Terminal Aerodrome Forecast
Issued by NWS Quad Cities IA IL

Home | Current Version | Previous Version | Text Only | Print | Product List | Glossary On
Versions: 1 2 3 4 5 6 7 8 9 10 11 12 13 14 15 16 17 18 19 20 21 22 23
969
FTUS43 KDVN 081131
TAFDBQ
TAF
KDBQ 081131Z 0812/0912 31018G24KT 5SM -SN SCT018 BKN040
     FM081400 32019G27KT 3SM -SN OVC025
     FM081800 32018G25KT 5SM -SHSN BR OVC020
     FM090300 33017G23KT 4SM -SHSN BR OVC018=

USA.gov is the U.S. government's official web portal to all federal, state and local government web resources and services.